createdAt,value
2019-03-18T00:01:41.866Z,100024.34
2019-03-18T00:04:09.611Z,100026.28
2019-03-18T00:06:37.382Z,100024.52
2019-03-18T00:09:05.824Z,100030.48
2019-03-18T00:11:33.562Z,100029.12
2019-03-18T00:14:01.317Z,100042.44
2019-03-18T00:16:29.060Z,100036.64
2019-03-18T00:18:56.805Z,100039.89
2019-03-18T00:21:24.817Z,100038.97
2019-03-18T00:23:52.563Z,100035.53
2019-03-18T00:26:20.318Z,100029.21
2019-03-18T00:28:48.064Z,100009.50
2019-03-18T00:31:15.801Z,100037.25
2019-03-18T00:33:43.575Z,100027.43
2019-03-18T00:36:11.384Z,100033.30
2019-03-18T00:38:39.141Z,100026.66
2019-03-18T00:41:06.862Z,100022.97
2019-03-18T00:43:34.605Z,100040.21
2019-03-18T00:46:02.392Z,100030.52
2019-03-18T00:48:30.235Z,100034.71
2019-03-18T00:50:58.061Z,100035.06
2019-03-18T00:53:25.817Z,99977.68
2019-03-18T00:55:53.844Z,100031.74
2019-03-18T00:58:21.574Z,100029.78
2019-03-18T01:00:49.372Z,100036.83
2019-03-18T01:03:17.202Z,100030.80
2019-03-18T01:05:44.993Z,100024.31
2019-03-18T01:08:12.768Z,100035.77
2019-03-18T01:10:40.517Z,100040.39
2019-03-18T01:13:08.293Z,100040.35
2019-03-18T01:15:36.057Z,100033.31
2019-03-18T01:18:03.969Z,100043.61
2019-03-18T01:20:31.770Z,100049.41
2019-03-18T01:22:59.626Z,100046.20
2019-03-18T01:25:27.369Z,100045.52
2019-03-18T01:27:55.125Z,100052.94
2019-03-18T01:30:22.889Z,100027.33
2019-03-18T01:32:50.653Z,100045.64
2019-03-18T01:35:18.452Z,100043.46
2019-03-18T01:37:46.231Z,100045.72
2019-03-18T01:40:13.977Z,100050.08
2019-03-18T01:42:41.845Z,100045.47
2019-03-18T01:45:09.660Z,100045.87
2019-03-18T01:47:37.491Z,100037.89
2019-03-18T01:50:05.615Z,100048.24
2019-03-18T01:52:33.379Z,100058.39
2019-03-18T01:55:01.176Z,100040.31
2019-03-18T01:57:28.950Z,100057.75
2019-03-18T01:59:56.710Z,100052.97
2019-03-18T02:02:24.469Z,100060.34
2019-03-18T02:04:52.246Z,100067.20
2019-03-18T02:07:20.016Z,100079.33
2019-03-18T02:09:47.809Z,100074.00
2019-03-18T02:12:15.690Z,100074.75
2019-03-18T02:14:43.507Z,100068.36
2019-03-18T02:17:11.312Z,100073.63
2019-03-18T02:19:39.237Z,100069.98
2019-03-18T02:22:07.160Z,100067.30
2019-03-18T02:24:34.987Z,100051.33
2019-03-18T02:27:02.751Z,100058.16
2019-03-18T02:29:30.522Z,100066.84
2019-03-18T02:31:58.541Z,100064.95
2019-03-18T02:34:26.280Z,100068.72
2019-03-18T02:36:54.158Z,100073.00
2019-03-18T02:39:21.992Z,99960.32
2019-03-18T02:41:49.790Z,100066.77
2019-03-18T02:44:17.677Z,100054.89
2019-03-18T02:46:45.438Z,100050.72
2019-03-18T02:49:13.277Z,100048.06
2019-03-18T02:51:41.123Z,100053.89
2019-03-18T02:54:09.010Z,100034.95
2019-03-18T02:56:36.801Z,100047.72
2019-03-18T02:59:04.547Z,100054.73
2019-03-18T03:01:32.370Z,100058.84
2019-03-18T03:04:00.143Z,100071.65
2019-03-18T03:06:27.892Z,100071.97
2019-03-18T03:08:55.817Z,100064.59
2019-03-18T03:11:23.550Z,100070.14
2019-03-18T03:13:51.341Z,100074.86
2019-03-18T03:16:26.652Z,99988.44
2019-03-18T03:18:48.604Z,100073.44
2019-03-18T03:21:16.507Z,100079.45
2019-03-18T03:23:44.311Z,100073.02
2019-03-18T03:26:12.063Z,100080.53
2019-03-18T03:28:39.803Z,100083.36
2019-03-18T03:31:07.704Z,100080.36
2019-03-18T03:33:35.529Z,100094.44
2019-03-18T03:36:03.276Z,100101.16
2019-03-18T03:38:31.057Z,100114.62
2019-03-18T03:40:58.805Z,100102.38
2019-03-18T03:43:26.557Z,100111.78
2019-03-18T03:45:54.392Z,100027.45
2019-03-18T03:48:22.170Z,100114.75
2019-03-18T03:50:49.920Z,100013.03
2019-03-18T03:53:17.797Z,100127.85
2019-03-18T03:55:45.534Z,100120.41
2019-03-18T03:58:13.293Z,100127.10
2019-03-18T04:00:41.053Z,100111.30
2019-03-18T04:03:08.836Z,100119.16
2019-03-18T04:05:36.656Z,100126.31
2019-03-18T04:08:04.408Z,100139.05
2019-03-18T04:10:32.209Z,100131.83
2019-03-18T04:13:00.005Z,100123.63
2019-03-18T04:15:27.749Z,100133.56
2019-03-18T04:17:55.592Z,100131.80
2019-03-18T04:20:23.340Z,100003.59
2019-03-18T04:22:51.178Z,100133.50
2019-03-18T04:25:18.957Z,100129.98
2019-03-18T04:27:46.720Z,100123.67
2019-03-18T04:30:14.504Z,100122.88
2019-03-18T04:32:42.236Z,100127.88
2019-03-18T04:35:10.030Z,100134.11
2019-03-18T04:37:37.801Z,100120.86
2019-03-18T04:40:05.759Z,100123.10
2019-03-18T04:42:33.559Z,100124.66
2019-03-18T04:45:01.534Z,100134.28
2019-03-18T04:47:29.303Z,100135.09
2019-03-18T04:49:57.061Z,100134.53
2019-03-18T04:52:24.799Z,100149.20
2019-03-18T04:54:52.556Z,100137.02
2019-03-18T04:57:20.337Z,100134.69
2019-03-18T04:59:48.129Z,100147.41
2019-03-18T05:02:16.958Z,100147.08
2019-03-18T05:04:44.944Z,100154.16
2019-03-18T05:07:12.698Z,100153.13
2019-03-18T05:09:40.460Z,100176.22
2019-03-18T05:12:08.276Z,100176.46
2019-03-18T05:14:36.106Z,100171.75
2019-03-18T05:17:03.997Z,100177.64
2019-03-18T05:19:31.763Z,100185.04
2019-03-18T05:21:59.664Z,100190.70
2019-03-18T05:24:27.425Z,100194.17
2019-03-18T05:26:55.163Z,100196.05
2019-03-18T05:29:22.920Z,100188.56
2019-03-18T05:31:50.657Z,100194.78
2019-03-18T05:34:18.397Z,100203.33
2019-03-18T05:36:46.170Z,100199.36
2019-03-18T05:39:22.704Z,100205.21
2019-03-18T05:41:50.473Z,100201.95
2019-03-18T05:44:18.302Z,100206.27
2019-03-18T05:47:38.343Z,100210.91
2019-03-18T05:50:14.581Z,100218.02
2019-03-18T05:53:31.604Z,100222.89
2019-03-18T05:55:14.232Z,100228.81
2019-03-18T05:57:42.115Z,100213.00
2019-03-18T06:00:09.928Z,100222.80
2019-03-18T06:02:37.684Z,100234.30
2019-03-18T06:05:05.822Z,100224.66
2019-03-18T06:07:33.575Z,100231.23
2019-03-18T06:10:01.343Z,100223.69
2019-03-18T06:12:29.155Z,100230.83
2019-03-18T06:14:57.140Z,100238.31
2019-03-18T06:17:24.877Z,100125.01
2019-03-18T06:19:52.688Z,100227.36
2019-03-18T06:22:20.598Z,100250.58
2019-03-18T06:24:48.450Z,100245.04
2019-03-18T06:27:16.314Z,100250.73
2019-03-18T06:29:44.157Z,100257.19
2019-03-18T06:32:12.031Z,100258.64
2019-03-18T06:34:39.908Z,100250.83
2019-03-18T06:37:07.741Z,100271.32
2019-03-18T06:39:35.519Z,100277.36
2019-03-18T06:42:03.306Z,100272.19
2019-03-18T06:44:31.052Z,100274.09
2019-03-18T06:46:58.901Z,100243.98
2019-03-18T06:49:26.664Z,100274.05
2019-03-18T06:51:54.504Z,100281.41
2019-03-18T06:54:22.326Z,100277.11
2019-03-18T06:56:50.070Z,100293.03
2019-03-18T06:59:17.807Z,100307.89
2019-03-18T07:01:45.540Z,100288.11
2019-03-18T07:04:13.298Z,100285.85
2019-03-18T07:06:41.039Z,100294.87
2019-03-18T07:09:08.793Z,100299.70
2019-03-18T07:11:36.539Z,100305.66
2019-03-18T07:14:04.293Z,100312.43
2019-03-18T07:16:34.553Z,100328.87
2019-03-18T07:19:03.727Z,100324.75
2019-03-18T07:21:36.626Z,100329.98
2019-03-18T07:24:04.424Z,100324.98
2019-03-18T07:26:32.264Z,100319.47
2019-03-18T07:29:00.019Z,100314.93
2019-03-18T07:31:27.753Z,100221.02
2019-03-18T07:33:55.518Z,100333.03
2019-03-18T07:36:23.266Z,100345.78
2019-03-18T07:38:51.005Z,100355.00
2019-03-18T07:41:18.736Z,100364.06
2019-03-18T07:43:46.500Z,100357.58
2019-03-18T07:46:14.291Z,100365.23
2019-03-18T07:48:42.086Z,100364.88
2019-03-18T07:51:09.837Z,100359.78
2019-03-18T07:53:37.664Z,100352.34
2019-03-18T07:56:05.412Z,100365.69
2019-03-18T07:58:33.240Z,100361.47
2019-03-18T08:01:01.071Z,100365.05
2019-03-18T08:03:28.926Z,100198.92
2019-03-18T08:05:56.696Z,100376.10
2019-03-18T08:08:24.582Z,100341.17
2019-03-18T08:10:52.341Z,100379.97
2019-03-18T08:13:20.070Z,100379.09
2019-03-18T08:15:47.877Z,100390.26
2019-03-18T08:18:15.632Z,100383.55
2019-03-18T08:20:43.370Z,100389.34
2019-03-18T08:23:11.143Z,100398.65
2019-03-18T08:25:38.949Z,100342.44
2019-03-18T08:28:06.710Z,100399.81
2019-03-18T08:30:34.524Z,100398.27
2019-03-18T08:33:03.174Z,100407.77
2019-03-18T08:35:30.950Z,100411.80
2019-03-18T08:37:58.747Z,100428.67
2019-03-18T08:40:26.497Z,100433.28
2019-03-18T08:42:54.239Z,100321.02
2019-03-18T08:45:21.992Z,100409.55
2019-03-18T08:47:49.744Z,100427.83
2019-03-18T08:50:17.593Z,100425.17
2019-03-18T08:52:45.353Z,100438.50
2019-03-18T08:55:13.137Z,100452.81
2019-03-18T08:57:40.888Z,100455.42
2019-03-18T09:00:09.428Z,100454.16
2019-03-18T09:02:37.176Z,100458.20
2019-03-18T09:05:05.217Z,100273.39
2019-03-18T09:07:33.021Z,100442.77
2019-03-18T09:10:00.821Z,100450.80
2019-03-18T09:12:28.873Z,100449.97
2019-03-18T09:14:56.753Z,100457.97
2019-03-18T09:17:24.812Z,100469.86
2019-03-18T09:19:52.597Z,100467.11
2019-03-18T09:22:20.354Z,100476.10
2019-03-18T09:24:48.121Z,100510.78
2019-03-18T09:27:15.880Z,100521.63
2019-03-18T09:29:43.877Z,100524.64
2019-03-18T09:32:11.839Z,100523.20
2019-03-18T09:34:39.660Z,100521.17
2019-03-18T09:37:07.425Z,100522.11
2019-03-18T09:39:35.172Z,100536.02
2019-03-18T09:42:02.934Z,100411.98
2019-03-18T09:44:30.681Z,100431.59
2019-03-18T09:46:58.424Z,100527.45
2019-03-18T09:49:26.188Z,100522.87
2019-03-18T09:51:54.013Z,100532.19
2019-03-18T09:54:21.852Z,100522.63
2019-03-18T09:56:49.606Z,100531.91
2019-03-18T09:59:17.344Z,100537.96
2019-03-18T10:01:45.185Z,100528.75
2019-03-18T10:04:12.925Z,100537.42
2019-03-18T10:06:40.922Z,100554.20
2019-03-18T10:09:08.804Z,100588.27
2019-03-18T10:11:36.756Z,100597.19
2019-03-18T10:14:04.536Z,100617.70
2019-03-18T10:16:32.276Z,100611.72
2019-03-18T10:19:00.109Z,100596.11
2019-03-18T10:21:27.853Z,100592.09
2019-03-18T10:23:55.831Z,100577.38
2019-03-18T10:26:23.590Z,100571.64
2019-03-18T10:28:51.336Z,100582.35
2019-03-18T10:31:19.099Z,100586.98
2019-03-18T10:33:46.854Z,100593.06
2019-03-18T10:36:14.584Z,100589.50
2019-03-18T10:38:42.325Z,100604.09
2019-03-18T10:41:10.075Z,100606.31
2019-03-18T10:43:37.832Z,100603.81
2019-03-18T10:46:05.600Z,100606.99
2019-03-18T10:48:33.371Z,100626.69
2019-03-18T10:51:01.115Z,100656.79
2019-03-18T10:53:28.848Z,100652.20
2019-03-18T10:56:07.350Z,100667.72
2019-03-18T10:58:26.097Z,100669.88
2019-03-18T11:00:53.852Z,100657.47
2019-03-18T11:03:21.610Z,100664.92
2019-03-18T11:05:49.353Z,100665.19
2019-03-18T11:08:17.102Z,100669.50
2019-03-18T11:10:44.931Z,100544.91
2019-03-18T11:13:12.671Z,100667.80
2019-03-18T11:15:40.438Z,100671.97
2019-03-18T11:18:08.220Z,100625.62
2019-03-18T11:20:36.049Z,100676.92
2019-03-18T11:23:03.849Z,100669.03
2019-03-18T11:25:31.669Z,100669.55
2019-03-18T11:27:59.417Z,100662.33
2019-03-18T11:30:27.256Z,100556.17
2019-03-18T11:32:55.079Z,100670.61
2019-03-18T11:35:22.822Z,100705.06
2019-03-18T11:37:50.561Z,100747.52
2019-03-18T11:40:18.304Z,100598.98
2019-03-18T11:42:46.048Z,100753.52
2019-03-18T11:45:13.808Z,100757.05
2019-03-18T11:47:41.550Z,100758.00
2019-03-18T11:50:11.290Z,100751.55
2019-03-18T11:52:39.356Z,100757.27
2019-03-18T11:55:07.771Z,100759.66
2019-03-18T11:57:35.505Z,100764.92
2019-03-18T12:00:03.279Z,100762.46
2019-03-18T12:02:31.067Z,100768.28
2019-03-18T12:04:58.805Z,100766.37
2019-03-18T12:07:26.567Z,100760.25
2019-03-18T12:09:54.312Z,100748.70
2019-03-18T12:12:22.065Z,100748.48
2019-03-18T12:14:49.835Z,100744.63
2019-03-18T12:17:17.605Z,100736.16
2019-03-18T12:19:45.329Z,100742.86
2019-03-18T12:22:13.085Z,100738.74
2019-03-18T12:24:40.862Z,100743.19
2019-03-18T12:27:08.666Z,100741.03
2019-03-18T12:29:36.404Z,100660.67
2019-03-18T12:32:05.949Z,100749.89
2019-03-18T12:34:33.741Z,100763.33
2019-03-18T12:37:01.497Z,100759.00
2019-03-18T12:39:29.300Z,100760.72
2019-03-18T12:41:57.041Z,100761.41
2019-03-18T12:44:24.802Z,100775.95
2019-03-18T12:46:52.553Z,100695.13
2019-03-18T12:49:20.300Z,100766.55
2019-03-18T12:51:48.137Z,100781.41
2019-03-18T12:54:15.861Z,100783.03
2019-03-18T12:56:43.620Z,100775.34
2019-03-18T12:59:11.352Z,100674.63
2019-03-18T13:01:39.136Z,100666.29
2019-03-18T13:04:08.896Z,100780.53
2019-03-18T13:06:36.504Z,100769.95
2019-03-18T13:09:06.212Z,100776.55
2019-03-18T13:11:49.404Z,100775.38
2019-03-18T13:14:17.135Z,100781.25
2019-03-18T13:16:44.917Z,100797.34
2019-03-18T13:19:12.665Z,100802.99
2019-03-18T13:21:40.432Z,100798.53
2019-03-18T13:24:08.184Z,100805.02
2019-03-18T13:26:36.009Z,100809.09
2019-03-18T13:29:03.753Z,100813.92
2019-03-18T13:31:31.615Z,100822.85
2019-03-18T13:33:59.433Z,100822.18
2019-03-18T13:36:27.270Z,100818.78
2019-03-18T13:38:55.036Z,100821.89
2019-03-18T13:41:22.794Z,100825.28
2019-03-18T13:43:50.541Z,100820.53
2019-03-18T13:46:18.657Z,100830.23
2019-03-18T13:48:46.528Z,100825.57
2019-03-18T13:51:20.855Z,100683.08
2019-03-18T13:53:43.779Z,100842.91
2019-03-18T13:56:11.516Z,100859.70
2019-03-18T13:58:39.340Z,100872.64
2019-03-18T14:01:07.087Z,100879.52
2019-03-18T14:03:34.856Z,100891.91
2019-03-18T14:06:02.703Z,100880.51
2019-03-18T14:08:30.487Z,100897.30
2019-03-18T14:10:58.319Z,100916.09
2019-03-18T14:13:26.059Z,100941.16
2019-03-18T14:15:53.818Z,100940.42
2019-03-18T14:18:21.685Z,100958.97
2019-03-18T14:20:49.438Z,100953.06
2019-03-18T14:23:17.234Z,100955.59
2019-03-18T14:25:45.634Z,100960.42
2019-03-18T14:28:13.670Z,100950.97
2019-03-18T14:30:44.152Z,100930.24
2019-03-18T14:33:14.103Z,100909.00
2019-03-18T14:35:41.675Z,100926.30
2019-03-18T14:38:09.511Z,100918.27
2019-03-18T14:40:37.363Z,100923.38
2019-03-18T14:43:05.132Z,100927.05
2019-03-18T14:45:32.901Z,100930.17
2019-03-18T14:48:00.761Z,100929.02
2019-03-18T14:50:28.586Z,100930.95
2019-03-18T14:52:56.470Z,100933.62
2019-03-18T14:55:24.241Z,100942.23
2019-03-18T14:57:52.028Z,100950.23
2019-03-18T15:00:20.537Z,100974.35
2019-03-18T15:02:48.304Z,100984.64
2019-03-18T15:05:16.112Z,100990.07
2019-03-18T15:07:50.942Z,100994.17
2019-03-18T15:10:17.618Z,100862.20
2019-03-18T15:13:01.894Z,100925.20
2019-03-18T15:15:29.863Z,100983.15
2019-03-18T15:17:57.620Z,100988.77
2019-03-18T15:20:25.500Z,101006.83
2019-03-18T15:22:53.402Z,101024.14
2019-03-18T15:25:21.229Z,101020.48
2019-03-18T15:27:48.980Z,101034.80
2019-03-18T15:30:17.413Z,101031.56
2019-03-18T15:32:46.318Z,101023.25
2019-03-18T15:38:01.818Z,101009.68
2019-03-18T15:40:37.097Z,101039.83
2019-03-18T15:43:05.016Z,101043.77
2019-03-18T15:45:43.371Z,101033.86
2019-03-18T15:48:10.905Z,101026.47
2019-03-18T15:50:38.663Z,101034.05
2019-03-18T15:53:07.090Z,101047.20
2019-03-18T15:55:34.857Z,101047.73
2019-03-18T15:58:02.682Z,101052.35
2019-03-18T16:00:46.579Z,100982.17
2019-03-18T16:03:16.281Z,101059.96
2019-03-18T16:05:44.089Z,101087.61
2019-03-18T16:08:11.915Z,101102.86
2019-03-18T16:10:39.961Z,101103.33
2019-03-18T16:13:08.018Z,101120.58
2019-03-18T16:15:35.881Z,101113.92
2019-03-18T16:18:03.637Z,101111.24
2019-03-18T16:20:31.435Z,101118.48
2019-03-18T16:22:59.187Z,101114.31
2019-03-18T16:25:26.957Z,101123.64
2019-03-18T16:27:54.737Z,101137.95
2019-03-18T16:30:22.522Z,101128.91
2019-03-18T16:32:50.293Z,100980.19
2019-03-18T16:35:18.142Z,101130.03
2019-03-18T16:37:45.908Z,101136.34
2019-03-18T16:40:13.799Z,101146.70
2019-03-18T16:42:41.585Z,101146.48
2019-03-18T16:45:10.001Z,101141.94
2019-03-18T16:47:38.042Z,101111.63
2019-03-18T16:50:11.841Z,101152.84
2019-03-18T16:52:39.658Z,101154.16
2019-03-18T16:55:07.419Z,101157.18
2019-03-18T16:57:35.276Z,101156.66
2019-03-18T17:00:03.133Z,101170.94
2019-03-18T17:02:30.960Z,101170.30
2019-03-18T17:04:58.804Z,101165.63
2019-03-18T17:07:26.761Z,101165.14
2019-03-18T17:09:55.431Z,101144.47
2019-03-18T17:12:23.286Z,101162.70
2019-03-18T17:14:52.690Z,101161.81
2019-03-18T17:17:22.771Z,101167.93
2019-03-18T17:19:50.518Z,101095.07
2019-03-18T17:22:18.345Z,101179.81
2019-03-18T17:24:49.220Z,101179.75
2019-03-18T17:27:17.205Z,101183.22
2019-03-18T17:29:45.022Z,101179.69
2019-03-18T17:32:12.876Z,101182.80
2019-03-18T17:34:40.760Z,101185.92
2019-03-18T17:37:08.649Z,101199.09
2019-03-18T17:39:36.489Z,101206.61
2019-03-18T17:42:04.278Z,101201.02
2019-03-18T17:44:32.118Z,101216.25
2019-03-18T17:46:59.858Z,101229.00
2019-03-18T17:49:27.969Z,101238.99
2019-03-18T17:51:55.844Z,101242.05
2019-03-18T17:54:23.664Z,101246.19
2019-03-18T17:56:51.435Z,101244.28
2019-03-18T17:59:19.213Z,101256.89
2019-03-18T18:01:46.964Z,101260.40
2019-03-18T18:04:14.766Z,101261.73
2019-03-18T18:06:42.531Z,101265.75
2019-03-18T18:09:10.273Z,101272.23
2019-03-18T18:11:38.013Z,101289.89
2019-03-18T18:14:05.761Z,101277.34
2019-03-18T18:16:33.536Z,101290.41
2019-03-18T18:19:01.304Z,101284.61
2019-03-18T18:21:29.141Z,101304.31
2019-03-18T18:23:56.962Z,101320.89
2019-03-18T18:26:24.764Z,101319.47
2019-03-18T18:28:52.551Z,101270.30
2019-03-18T18:31:20.312Z,101330.03
2019-03-18T18:33:48.060Z,101337.48
2019-03-18T18:36:15.893Z,101337.02
2019-03-18T18:38:43.729Z,101340.28
2019-03-18T18:41:11.541Z,101336.24
2019-03-18T18:43:39.317Z,101345.43
2019-03-18T18:46:07.120Z,101348.33
2019-03-18T18:48:34.912Z,101348.48
2019-03-18T18:51:02.648Z,101355.78
2019-03-18T18:53:30.521Z,101353.81
2019-03-18T18:55:58.275Z,101272.69
2019-03-18T18:58:26.096Z,101372.20
2019-03-18T19:00:53.841Z,101369.88
2019-03-18T19:03:21.784Z,101380.15
2019-03-18T19:05:49.512Z,101399.86
2019-03-18T19:08:17.301Z,101385.26
2019-03-18T19:10:45.032Z,101386.00
2019-03-18T19:13:12.932Z,101392.81
2019-03-18T19:15:40.747Z,101397.72
2019-03-18T19:18:08.524Z,101401.22
2019-03-18T19:20:36.289Z,101404.91
2019-03-18T19:23:05.041Z,101408.91
2019-03-18T19:25:32.870Z,101415.26
2019-03-18T19:28:00.639Z,101412.25
2019-03-18T19:30:28.396Z,101416.68
2019-03-18T19:32:56.136Z,101418.11
2019-03-18T19:35:23.953Z,101419.67
2019-03-18T19:37:51.821Z,101432.48
2019-03-18T19:40:19.591Z,101432.02
2019-03-18T19:42:47.515Z,101440.52
2019-03-18T19:45:15.299Z,101442.16
2019-03-18T19:47:43.192Z,101442.52
2019-03-18T19:50:12.211Z,101441.23
2019-03-18T19:52:40.040Z,101444.45
2019-03-18T19:55:07.974Z,101446.30
2019-03-18T19:57:35.765Z,101456.47
2019-03-18T20:00:03.669Z,101447.87
2019-03-18T20:02:33.630Z,101456.31
2019-03-18T20:05:01.413Z,101468.05
2019-03-18T20:07:29.311Z,101474.28
2019-03-18T20:09:57.152Z,101473.84
2019-03-18T20:12:24.927Z,101476.95
2019-03-18T20:14:52.760Z,101484.99
2019-03-18T20:17:20.613Z,101475.99
2019-03-18T20:19:49.662Z,101485.80
2019-03-18T20:22:17.537Z,101490.94
2019-03-18T20:24:45.483Z,101494.95
2019-03-18T20:27:13.481Z,101496.31
2019-03-18T20:29:41.730Z,101495.02
2019-03-18T20:32:10.707Z,101508.72
2019-03-18T20:34:38.567Z,101499.44
2019-03-18T20:37:06.663Z,101494.53
2019-03-18T20:39:34.453Z,101504.20
2019-03-18T20:42:02.205Z,101507.91
2019-03-18T20:44:30.026Z,101503.84
2019-03-18T20:46:57.768Z,101503.92
2019-03-18T20:49:25.573Z,101504.77
2019-03-18T20:51:53.393Z,101508.78
2019-03-18T20:54:21.183Z,101507.41
2019-03-18T20:56:51.481Z,101518.01
2019-03-18T20:59:19.308Z,101521.08
2019-03-18T21:01:47.095Z,101522.56
2019-03-18T21:04:15.008Z,101526.91
2019-03-18T21:06:42.890Z,101442.69
2019-03-18T21:09:10.645Z,101529.22
2019-03-18T21:11:38.402Z,101530.12
2019-03-18T21:14:06.169Z,101539.00
2019-03-18T21:16:33.923Z,101546.18
2019-03-18T21:19:01.918Z,101544.83
2019-03-18T21:21:29.752Z,101547.16
2019-03-18T21:23:57.577Z,101543.98
2019-03-18T21:26:25.327Z,101545.39
2019-03-18T21:28:53.207Z,101548.59
2019-03-18T21:31:21.016Z,101518.70
2019-03-18T21:33:48.761Z,101553.41
2019-03-18T21:36:28.119Z,101549.27
2019-03-18T21:38:46.231Z,101410.38
2019-03-18T21:41:13.986Z,101566.80
2019-03-18T21:43:41.812Z,101572.87
2019-03-18T21:46:09.895Z,101567.23
2019-03-18T21:48:37.654Z,101579.63
2019-03-18T21:51:05.384Z,101440.30
2019-03-18T21:53:33.148Z,101587.02
2019-03-18T21:56:00.944Z,101596.47
2019-03-18T21:58:28.685Z,101609.03
2019-03-18T22:00:56.487Z,101616.23
2019-03-18T22:03:24.240Z,101626.45
2019-03-18T22:05:52.008Z,101620.08
2019-03-18T22:08:19.780Z,101440.55
2019-03-18T22:10:47.557Z,101581.72
2019-03-18T22:13:15.329Z,101611.52
2019-03-18T22:15:43.101Z,101620.36
2019-03-18T22:18:10.857Z,101618.61
2019-03-18T22:20:38.618Z,101616.31
2019-03-18T22:23:06.379Z,101617.68
2019-03-18T22:25:34.797Z,101616.66
2019-03-18T22:28:02.648Z,101624.30
2019-03-18T22:30:30.475Z,101628.34
2019-03-18T22:32:58.242Z,101630.56
2019-03-18T22:35:26.004Z,101626.07
2019-03-18T22:37:53.773Z,101624.28
2019-03-18T22:40:21.533Z,101627.39
2019-03-18T22:42:49.273Z,101628.27
2019-03-18T22:45:17.069Z,101628.77
2019-03-18T22:47:46.442Z,101625.17
2019-03-18T22:50:14.731Z,101623.41
2019-03-18T22:52:42.553Z,101630.13
2019-03-18T22:55:10.356Z,101626.59
2019-03-18T22:57:38.233Z,101637.23
2019-03-18T23:00:09.395Z,101611.02
2019-03-18T23:02:37.129Z,101641.65
2019-03-18T23:05:05.359Z,101639.89
2019-03-18T23:07:33.113Z,101633.27
2019-03-18T23:10:00.881Z,101637.29
2019-03-18T23:12:31.495Z,101645.67
2019-03-18T23:14:59.266Z,101641.13
2019-03-18T23:17:27.303Z,101650.47
2019-03-18T23:19:55.096Z,101661.05
2019-03-18T23:22:22.896Z,101663.28
2019-03-18T23:24:50.706Z,101661.52
2019-03-18T23:27:18.464Z,101666.01
2019-03-18T23:29:46.252Z,101670.00
2019-03-18T23:32:14.056Z,101675.67
2019-03-18T23:34:41.800Z,101674.95
2019-03-18T23:37:09.574Z,101679.84
2019-03-18T23:39:37.433Z,101680.70
2019-03-18T23:42:05.195Z,101684.72
2019-03-18T23:44:51.227Z,101686.49
2019-03-18T23:47:19.022Z,101682.91
2019-03-18T23:49:47.658Z,101691.42
2019-03-18T23:52:15.603Z,101692.23
2019-03-18T23:54:43.368Z,101696.36
2019-03-18T23:57:11.110Z,101693.19
2019-03-18T23:59:38.844Z,101697.59
